KBLIKAST

Guest
Details From KBLI - BELLINGHAM INTL
To KAST - Astoria Rgnl
Flight Number -
Tags generated
Created
Modified
Stats Distance 167 nm / 310 km
Max Altitude 12,300 ft / 3,749 m
Waypoints 3
Social Downloads 0
Likes 0
Share VATSIM

Download

Looking for another format? Having issues loading an existing format? Contact us
Advertisement - Login to hide

Notes

Basic altitude profile: - Ascent Rate: 2500ft/min - Ascent Speed: 250kts - Cruise Altitude: 18800ft - Cruise Speed: 380kts - Descent Rate: 1500ft/min - Descent Speed: 250kts Options: - Use NATs: yes - Use PACOTS: yes - Use low airways: yes - Use high airways: yes

Route

KBLI ELMAA KAST

ID Type Via Altitude Latitude Longitude Leg Dist Tot Dist Heading (true) Name
O KBLI APT - 0 ft / 0 m 48.79261˚ -122.53753˚ - 0 nm - BELLINGHAM INTL
ELMAA FIX - 12,300 ft / 3,749 m 47.14804˚ -123.40955˚ 104 nm 104 nm 200° / 199° -
O KAST APT - 0 ft / 0 m 46.15789˚ -123.87872˚ 62 nm 167 nm 198° / 198° Astoria Rgnl

Altitude Profile

Advertisement - Login to hide

Weather


0- 5 10 15 20 25 30 35+ Temperature / ° C

Clouds and Precipitation
Forecast for 2017-12-13 18:00 UTC. Updated 2 hours ago

Ground ~20,000 ft ~40,000 ft Winds

KBLI

Details ICAO KBLI (BLI)
Name BELLINGHAM INTL
Region United States
Timezone America/Los_Angeles (UTC-8.0)
Stats Elevation 170 ft / 52 m (AMSL)
Location 48.792615° -122.537535°
Runways 1
Magnetic Variation 16.053° E

METAR

KBLI 131653Z 01005KT 10SM CLR 03/02 A3043 RMK AO2 SLP315 I1000 T00280017

Decode

TAF

KBLI 131124Z 1312/1412 00000KT P6SM SKC TEMPO 1314/1318 2SM BR SCT002 FM141100 04006KT 2SM BR SCT002

Decode

Departure Runways

ID Width Length Bearing (true) Bearing (mag) Surface Threshold Offset Overrun Length
16 151 ft / 46 m 6,755 ft / 2,059 m 179.88° 163.83° Asphalt 0 ft / 0 m 0 ft / 0 m
34 151 ft / 46 m 6,755 ft / 2,059 m 359.88° 343.83° Asphalt 0 ft / 0 m 0 ft / 0 m

KAST

Details ICAO KAST (AST)
Name Astoria Rgnl
Region United States
Timezone America/Los_Angeles (UTC-8.0)
Stats Elevation 15 ft / 5 m (AMSL)
Location 46.157894° -123.878724°
Runways 2
Magnetic Variation 15.636° E

METAR

KAST 131655Z AUTO 10005KT 9SM -SN CLR 04/01 A3036 RMK AO2 SNB45 SLP279 P0000 T00390011

Decode

TAF

KAST 131139Z 1312/1412 06003KT P6SM SCT250

Decode

Destination Runways

ID Width Length Bearing (true) Bearing (mag) Surface Threshold Offset Overrun Length
08 98 ft / 30 m 5,779 ft / 1,762 m 95.49° 79.85° Asphalt 302 ft / 92 m 0 ft / 0 m
13 98 ft / 30 m 4,997 ft / 1,523 m 153.70° 138.06° Asphalt 328 ft / 100 m 0 ft / 0 m
26 98 ft / 30 m 5,779 ft / 1,762 m 275.51° 259.87° Asphalt 705 ft / 215 m 0 ft / 0 m
31 98 ft / 30 m 4,997 ft / 1,523 m 333.70° 318.06° Asphalt 203 ft / 62 m 0 ft / 0 m

Approach Navaids

Runway Type Ident Frequency Range Bearing (true) Bearing (mag) Slope Elevation
26 Localiser IAST 109.50 MHz 18 nm / 33 km 275.50° 259.86° - 15 ft / 5 m (AMSL)
26 Glidescope IAST 109.50 MHz 10 nm / 19 km 275.50° 259.86° 3.00° 15 ft / 5 m (AMSL)

Popular Alternatives